sensor_id;sensor_type;location;lat;lon;timestamp;temperature;humidity
8684;DHT22;4379;59.744;18.206;2023-01-15T00:00:10;2.20;99.90
8684;DHT22;4379;59.744;18.206;2023-01-15T00:02:37;2.20;99.90
8684;DHT22;4379;59.744;18.206;2023-01-15T00:05:05;2.20;99.90
8684;DHT22;4379;59.744;18.206;2023-01-15T00:07:32;2.30;99.90
8684;DHT22;4379;59.744;18.206;2023-01-15T00:09:59;2.30;99.90
8684;DHT22;4379;59.744;18.206;2023-01-15T00:12:29;2.30;99.90
8684;DHT22;4379;59.744;18.206;2023-01-15T00:14:57;2.40;99.90
8684;DHT22;4379;59.744;18.206;2023-01-15T00:17:25;2.40;99.90
8684;DHT22;4379;59.744;18.206;2023-01-15T00:19:53;2.40;99.90
8684;DHT22;4379;59.744;18.206;2023-01-15T00:22:20;2.30;99.90
8684;DHT22;4379;59.744;18.206;2023-01-15T00:24:47;2.40;99.90
8684;DHT22;4379;59.744;18.206;2023-01-15T00:27:34;2.40;99.90
8684;DHT22;4379;59.744;18.206;2023-01-15T00:30:12;2.40;99.90
8684;DHT22;4379;59.744;18.206;2023-01-15T00:32:41;2.40;99.90
8684;DHT22;4379;59.744;18.206;2023-01-15T00:35:17;2.40;99.90
8684;DHT22;4379;59.744;18.206;2023-01-15T00:37:45;2.50;99.90
8684;DHT22;4379;59.744;18.206;2023-01-15T00:40:14;2.60;99.90
8684;DHT22;4379;59.744;18.206;2023-01-15T00:42:41;2.60;99.90
8684;DHT22;4379;59.744;18.206;2023-01-15T00:45:20;2.60;99.90
8684;DHT22;4379;59.744;18.206;2023-01-15T00:47:49;2.60;99.90
8684;DHT22;4379;59.744;18.206;2023-01-15T00:50:17;2.70;99.90
8684;DHT22;4379;59.744;18.206;2023-01-15T00:52:44;2.80;99.90
8684;DHT22;4379;59.744;18.206;2023-01-15T00:55:12;2.80;99.90
8684;DHT22;4379;59.744;18.206;2023-01-15T00:57:39;2.80;99.90
8684;DHT22;4379;59.744;18.206;2023-01-15T01:00:08;2.80;99.90
8684;DHT22;4379;59.744;18.206;2023-01-15T01:02:39;2.90;99.90
8684;DHT22;4379;59.744;18.206;2023-01-15T01:05:07;2.90;99.90
8684;DHT22;4379;59.744;18.206;2023-01-15T01:07:34;3.00;99.90
8684;DHT22;4379;59.744;18.206;2023-01-15T01:10:01;3.10;99.90
8684;DHT22;4379;59.744;18.206;2023-01-15T01:12:28;3.10;99.90
8684;DHT22;4379;59.744;18.206;2023-01-15T01:14:56;3.30;99.90
8684;DHT22;4379;59.744;18.206;2023-01-15T01:17:23;3.20;99.90
8684;DHT22;4379;59.744;18.206;2023-01-15T01:19:53;3.30;99.90
8684;DHT22;4379;59.744;18.206;2023-01-15T01:22:20;3.40;99.90
8684;DHT22;4379;59.744;18.206;2023-01-15T01:24:47;3.40;99.90
8684;DHT22;4379;59.744;18.206;2023-01-15T01:27:14;3.40;99.90
8684;DHT22;4379;59.744;18.206;2023-01-15T01:29:44;3.50;99.90
8684;DHT22;4379;59.744;18.206;2023-01-15T01:32:11;3.50;99.90
8684;DHT22;4379;59.744;18.206;2023-01-15T01:34:39;3.50;99.90
8684;DHT22;4379;59.744;18.206;2023-01-15T01:37:07;3.50;99.90
8684;DHT22;4379;59.744;18.206;2023-01-15T01:39:34;3.50;99.90
8684;DHT22;4379;59.744;18.206;2023-01-15T01:42:01;3.50;99.90
8684;DHT22;4379;59.744;18.206;2023-01-15T01:47:04;3.50;99.90
8684;DHT22;4379;59.744;18.206;2023-01-15T01:49:33;3.40;99.90
8684;DHT22;4379;59.744;18.206;2023-01-15T01:52:06;3.40;99.90
8684;DHT22;4379;59.744;18.206;2023-01-15T01:54:35;3.30;99.90
8684;DHT22;4379;59.744;18.206;2023-01-15T01:57:05;3.30;99.90
8684;DHT22;4379;59.744;18.206;2023-01-15T01:59:33;3.30;99.90
8684;DHT22;4379;59.744;18.206;2023-01-15T02:02:01;3.20;99.90
8684;DHT22;4379;59.744;18.206;2023-01-15T02:04:28;3.20;99.90
8684;DHT22;4379;59.744;18.206;2023-01-15T02:06:59;3.10;99.90
8684;DHT22;4379;59.744;18.206;2023-01-15T02:09:26;3.10;99.90
8684;DHT22;4379;59.744;18.206;2023-01-15T02:11:57;3.10;99.90
8684;DHT22;4379;59.744;18.206;2023-01-15T02:14:37;3.10;99.90
8684;DHT22;4379;59.744;18.206;2023-01-15T02:17:15;3.10;99.90
8684;DHT22;4379;59.744;18.206;2023-01-15T02:20:04;3.00;99.90
8684;DHT22;4379;59.744;18.206;2023-01-15T02:25:42;3.00;99.90
8684;DHT22;4379;59.744;18.206;2023-01-15T02:28:23;2.90;99.90
8684;DHT22;4379;59.744;18.206;2023-01-15T02:31:33;2.90;99.90
8684;DHT22;4379;59.744;18.206;2023-01-15T02:34:26;2.90;99.90
8684;DHT22;4379;59.744;18.206;2023-01-15T02:37:08;2.90;99.90
8684;DHT22;4379;59.744;18.206;2023-01-15T02:39:39;2.80;99.90
8684;DHT22;4379;59.744;18.206;2023-01-15T02:42:08;2.80;99.90
8684;DHT22;4379;59.744;18.206;2023-01-15T02:44:43;2.80;99.90
8684;DHT22;4379;59.744;18.206;2023-01-15T02:47:12;2.80;99.90
8684;DHT22;4379;59.744;18.206;2023-01-15T02:49:42;2.70;99.90
8684;DHT22;4379;59.744;18.206;2023-01-15T02:52:18;2.70;99.90
8684;DHT22;4379;59.744;18.206;2023-01-15T02:54:55;2.70;99.90
8684;DHT22;4379;59.744;18.206;2023-01-15T02:57:25;2.70;99.90
8684;DHT22;4379;59.744;18.206;2023-01-15T02:59:56;2.80;99.90
8684;DHT22;4379;59.744;18.206;2023-01-15T03:02:29;2.70;99.90
8684;DHT22;4379;59.744;18.206;2023-01-15T03:05:06;2.70;99.90
8684;DHT22;4379;59.744;18.206;2023-01-15T03:07:51;2.80;99.90
8684;DHT22;4379;59.744;18.206;2023-01-15T03:10:22;2.70;99.90
8684;DHT22;4379;59.744;18.206;2023-01-15T03:12:58;2.80;99.90
8684;DHT22;4379;59.744;18.206;2023-01-15T03:16:00;2.80;99.90
8684;DHT22;4379;59.744;18.206;2023-01-15T03:21:45;2.70;99.90
8684;DHT22;4379;59.744;18.206;2023-01-15T03:27:00;2.70;99.90
8684;DHT22;4379;59.744;18.206;2023-01-15T03:29:31;2.60;99.90
8684;DHT22;4379;59.744;18.206;2023-01-15T03:31:59;2.60;99.90
8684;DHT22;4379;59.744;18.206;2023-01-15T03:34:35;2.60;99.90
8684;DHT22;4379;59.744;18.206;2023-01-15T03:37:04;2.50;99.90
8684;DHT22;4379;59.744;18.206;2023-01-15T03:39:35;2.50;99.90
8684;DHT22;4379;59.744;18.206;2023-01-15T03:42:06;2.50;99.90
8684;DHT22;4379;59.744;18.206;2023-01-15T03:44:46;2.50;99.90
8684;DHT22;4379;59.744;18.206;2023-01-15T03:58:27;2.40;99.90
8684;DHT22;4379;59.744;18.206;2023-01-15T04:00:57;2.40;99.90
8684;DHT22;4379;59.744;18.206;2023-01-15T04:03:27;2.50;99.90
8684;DHT22;4379;59.744;18.206;2023-01-15T04:05:58;2.40;99.90
8684;DHT22;4379;59.744;18.206;2023-01-15T04:08:30;2.40;99.90
8684;DHT22;4379;59.744;18.206;2023-01-15T04:11:00;2.40;99.90
8684;DHT22;4379;59.744;18.206;2023-01-15T04:13:27;2.40;99.90
8684;DHT22;4379;59.744;18.206;2023-01-15T04:15:57;2.40;99.90
8684;DHT22;4379;59.744;18.206;2023-01-15T04:18:25;2.40;99.90
8684;DHT22;4379;59.744;18.206;2023-01-15T04:20:52;2.40;99.90
8684;DHT22;4379;59.744;18.206;2023-01-15T04:23:22;2.50;99.90
8684;DHT22;4379;59.744;18.206;2023-01-15T04:25:50;2.40;99.90
8684;DHT22;4379;59.744;18.206;2023-01-15T04:28:17;2.40;99.90
8684;DHT22;4379;59.744;18.206;2023-01-15T04:30:44;2.40;99.90
8684;DHT22;4379;59.744;18.206;2023-01-15T04:33:12;2.40;99.90
8684;DHT22;4379;59.744;18.206;2023-01-15T04:35:39;2.40;99.90
8684;DHT22;4379;59.744;18.206;2023-01-15T04:38:06;2.40;99.90
8684;DHT22;4379;59.744;18.206;2023-01-15T04:40:34;2.40;99.90
8684;DHT22;4379;59.744;18.206;2023-01-15T04:43:19;2.40;99.90
8684;DHT22;4379;59.744;18.206;2023-01-15T04:46:05;2.40;99.90
8684;DHT22;4379;59.744;18.206;2023-01-15T04:48:33;2.30;99.90
8684;DHT22;4379;59.744;18.206;2023-01-15T04:51:04;2.40;99.90
8684;DHT22;4379;59.744;18.206;2023-01-15T04:53:32;2.40;99.90
8684;DHT22;4379;59.744;18.206;2023-01-15T04:56:00;2.40;99.90
8684;DHT22;4379;59.744;18.206;2023-01-15T04:58:28;2.40;99.90
8684;DHT22;4379;59.744;18.206;2023-01-15T05:00:56;2.40;99.90
8684;DHT22;4379;59.744;18.206;2023-01-15T05:03:23;2.50;99.90
8684;DHT22;4379;59.744;18.206;2023-01-15T05:05:50;2.50;99.90
8684;DHT22;4379;59.744;18.206;2023-01-15T05:08:18;2.50;99.90
8684;DHT22;4379;59.744;18.206;2023-01-15T05:10:45;2.50;99.90
8684;DHT22;4379;59.744;18.206;2023-01-15T05:13:12;2.60;99.90
8684;DHT22;4379;59.744;18.206;2023-01-15T05:15:39;2.60;99.90
8684;DHT22;4379;59.744;18.206;2023-01-15T05:18:08;2.60;99.90
8684;DHT22;4379;59.744;18.206;2023-01-15T05:20:36;2.60;99.90
8684;DHT22;4379;59.744;18.206;2023-01-15T05:23:03;2.60;99.90
8684;DHT22;4379;59.744;18.206;2023-01-15T05:25:30;2.70;99.90
8684;DHT22;4379;59.744;18.206;2023-01-15T05:27:58;2.70;99.90
8684;DHT22;4379;59.744;18.206;2023-01-15T05:30:25;2.80;99.90
8684;DHT22;4379;59.744;18.206;2023-01-15T05:32:52;2.80;99.90
8684;DHT22;4379;59.744;18.206;2023-01-15T05:35:20;2.90;99.90
8684;DHT22;4379;59.744;18.206;2023-01-15T05:37:47;2.90;99.90
8684;DHT22;4379;59.744;18.206;2023-01-15T05:40:14;2.90;99.90
8684;DHT22;4379;59.744;18.206;2023-01-15T05:42:41;3.00;99.90
8684;DHT22;4379;59.744;18.206;2023-01-15T05:45:09;3.10;99.90
8684;DHT22;4379;59.744;18.206;2023-01-15T05:47:36;3.10;99.90
8684;DHT22;4379;59.744;18.206;2023-01-15T05:50:04;3.10;99.90
8684;DHT22;4379;59.744;18.206;2023-01-15T05:52:31;3.10;99.90
8684;DHT22;4379;59.744;18.206;2023-01-15T05:54:58;3.20;99.90
8684;DHT22;4379;59.744;18.206;2023-01-15T05:57:25;3.20;99.90
8684;DHT22;4379;59.744;18.206;2023-01-15T05:59:52;3.20;99.90
8684;DHT22;4379;59.744;18.206;2023-01-15T06:02:21;3.30;99.90
8684;DHT22;4379;59.744;18.206;2023-01-15T06:04:50;3.30;99.90
8684;DHT22;4379;59.744;18.206;2023-01-15T06:07:17;3.40;99.90
8684;DHT22;4379;59.744;18.206;2023-01-15T06:09:44;3.40;99.90
8684;DHT22;4379;59.744;18.206;2023-01-15T06:12:12;3.40;99.90
8684;DHT22;4379;59.744;18.206;2023-01-15T06:14:39;3.40;99.90
8684;DHT22;4379;59.744;18.206;2023-01-15T06:17:06;3.40;99.90
8684;DHT22;4379;59.744;18.206;2023-01-15T06:19:33;3.50;99.90
8684;DHT22;4379;59.744;18.206;2023-01-15T06:22:00;3.50;99.90
8684;DHT22;4379;59.744;18.206;2023-01-15T06:24:29;3.50;99.90
8684;DHT22;4379;59.744;18.206;2023-01-15T06:26:56;3.60;99.90
8684;DHT22;4379;59.744;18.206;2023-01-15T06:29:23;3.60;99.90
8684;DHT22;4379;59.744;18.206;2023-01-15T06:31:51;3.60;99.90
8684;DHT22;4379;59.744;18.206;2023-01-15T06:34:18;3.60;99.90
8684;DHT22;4379;59.744;18.206;2023-01-15T06:36:45;3.60;99.90
8684;DHT22;4379;59.744;18.206;2023-01-15T06:39:12;3.60;99.90
8684;DHT22;4379;59.744;18.206;2023-01-15T06:41:40;3.60;99.90
8684;DHT22;4379;59.744;18.206;2023-01-15T06:44:25;3.60;99.90
8684;DHT22;4379;59.744;18.206;2023-01-15T06:47:16;3.50;99.90
8684;DHT22;4379;59.744;18.206;2023-01-15T06:49:58;3.50;99.90
8684;DHT22;4379;59.744;18.206;2023-01-15T06:52:27;3.50;99.90
8684;DHT22;4379;59.744;18.206;2023-01-15T06:54:55;3.50;99.90
8684;DHT22;4379;59.744;18.206;2023-01-15T06:57:22;3.50;99.90
8684;DHT22;4379;59.744;18.206;2023-01-15T06:59:50;3.50;99.90
8684;DHT22;4379;59.744;18.206;2023-01-15T07:02:18;3.50;99.90
8684;DHT22;4379;59.744;18.206;2023-01-15T07:04:49;3.50;99.90
8684;DHT22;4379;59.744;18.206;2023-01-15T07:07:18;3.50;99.90
8684;DHT22;4379;59.744;18.206;2023-01-15T07:09:45;3.50;99.90
8684;DHT22;4379;59.744;18.206;2023-01-15T07:12:13;3.50;99.90
8684;DHT22;4379;59.744;18.206;2023-01-15T07:14:40;3.40;99.90
8684;DHT22;4379;59.744;18.206;2023-01-15T07:17:07;3.40;99.90
8684;DHT22;4379;59.744;18.206;2023-01-15T07:19:35;3.50;99.90
8684;DHT22;4379;59.744;18.206;2023-01-15T07:22:04;3.40;99.90
8684;DHT22;4379;59.744;18.206;2023-01-15T07:24:34;3.50;99.90
8684;DHT22;4379;59.744;18.206;2023-01-15T07:27:01;3.50;99.90
8684;DHT22;4379;59.744;18.206;2023-01-15T07:29:29;3.60;99.90
8684;DHT22;4379;59.744;18.206;2023-01-15T07:31:57;3.60;99.90
8684;DHT22;4379;59.744;18.206;2023-01-15T07:34:25;3.60;99.90
8684;DHT22;4379;59.744;18.206;2023-01-15T07:36:52;3.60;99.90
8684;DHT22;4379;59.744;18.206;2023-01-15T07:39:19;3.60;99.90
8684;DHT22;4379;59.744;18.206;2023-01-15T07:41:46;3.60;99.90
8684;DHT22;4379;59.744;18.206;2023-01-15T07:44:32;3.60;99.90
8684;DHT22;4379;59.744;18.206;2023-01-15T07:47:23;3.60;99.90
8684;DHT22;4379;59.744;18.206;2023-01-15T07:50:12;3.50;99.90
8684;DHT22;4379;59.744;18.206;2023-01-15T07:52:40;3.50;99.90
8684;DHT22;4379;59.744;18.206;2023-01-15T07:55:08;3.50;99.90
8684;DHT22;4379;59.744;18.206;2023-01-15T07:57:36;3.50;99.90
8684;DHT22;4379;59.744;18.206;2023-01-15T08:00:06;3.50;99.90
8684;DHT22;4379;59.744;18.206;2023-01-15T08:02:34;3.50;99.90
8684;DHT22;4379;59.744;18.206;2023-01-15T08:05:01;3.40;99.90
8684;DHT22;4379;59.744;18.206;2023-01-15T08:07:28;3.40;99.90
8684;DHT22;4379;59.744;18.206;2023-01-15T08:09:56;3.40;99.90
8684;DHT22;4379;59.744;18.206;2023-01-15T08:12:23;3.50;99.90
8684;DHT22;4379;59.744;18.206;2023-01-15T08:15:09;3.40;99.90
8684;DHT22;4379;59.744;18.206;2023-01-15T08:17:41;3.40;99.90
8684;DHT22;4379;59.744;18.206;2023-01-15T08:20:14;3.30;99.90
8684;DHT22;4379;59.744;18.206;2023-01-15T08:22:43;3.20;99.90
8684;DHT22;4379;59.744;18.206;2023-01-15T08:25:16;3.20;99.90
8684;DHT22;4379;59.744;18.206;2023-01-15T08:27:44;3.10;99.90
8684;DHT22;4379;59.744;18.206;2023-01-15T08:30:15;3.00;99.90
8684;DHT22;4379;59.744;18.206;2023-01-15T08:32:42;2.90;99.90
8684;DHT22;4379;59.744;18.206;2023-01-15T08:35:10;2.80;99.90
8684;DHT22;4379;59.744;18.206;2023-01-15T08:37:41;2.80;99.90
8684;DHT22;4379;59.744;18.206;2023-01-15T08:40:11;2.70;99.90
8684;DHT22;4379;59.744;18.206;2023-01-15T08:42:38;2.60;99.90
8684;DHT22;4379;59.744;18.206;2023-01-15T08:45:07;2.60;99.90
8684;DHT22;4379;59.744;18.206;2023-01-15T08:47:34;2.60;99.90
8684;DHT22;4379;59.744;18.206;2023-01-15T08:50:06;2.50;99.90
8684;DHT22;4379;59.744;18.206;2023-01-15T08:52:36;2.50;99.90
8684;DHT22;4379;59.744;18.206;2023-01-15T08:55:05;2.40;99.90
8684;DHT22;4379;59.744;18.206;2023-01-15T08:57:32;2.40;99.90
8684;DHT22;4379;59.744;18.206;2023-01-15T09:00:00;2.50;99.90
8684;DHT22;4379;59.744;18.206;2023-01-15T09:02:28;2.50;99.90
8684;DHT22;4379;59.744;18.206;2023-01-15T09:04:55;2.50;99.90
8684;DHT22;4379;59.744;18.206;2023-01-15T09:07:23;2.60;99.90
8684;DHT22;4379;59.744;18.206;2023-01-15T09:09:50;2.60;99.90
8684;DHT22;4379;59.744;18.206;2023-01-15T09:12:18;2.60;99.90
8684;DHT22;4379;59.744;18.206;2023-01-15T09:14:45;2.60;99.90
8684;DHT22;4379;59.744;18.206;2023-01-15T09:17:27;2.60;99.90
8684;DHT22;4379;59.744;18.206;2023-01-15T09:19:54;2.60;99.90
8684;DHT22;4379;59.744;18.206;2023-01-15T09:22:22;2.60;99.90
8684;DHT22;4379;59.744;18.206;2023-01-15T09:24:49;2.50;99.90
8684;DHT22;4379;59.744;18.206;2023-01-15T09:27:16;2.60;99.90
8684;DHT22;4379;59.744;18.206;2023-01-15T09:29:44;2.70;99.90
8684;DHT22;4379;59.744;18.206;2023-01-15T09:32:11;2.70;99.90
8684;DHT22;4379;59.744;18.206;2023-01-15T09:34:38;2.80;99.90
8684;DHT22;4379;59.744;18.206;2023-01-15T09:37:06;2.90;99.90
8684;DHT22;4379;59.744;18.206;2023-01-15T09:39:33;2.90;99.90
8684;DHT22;4379;59.744;18.206;2023-01-15T09:45:23;3.10;99.90
8684;DHT22;4379;59.744;18.206;2023-01-15T09:48:00;3.10;99.90
8684;DHT22;4379;59.744;18.206;2023-01-15T09:55:59;3.20;99.90
8684;DHT22;4379;59.744;18.206;2023-01-15T09:58:36;3.30;99.90
8684;DHT22;4379;59.744;18.206;2023-01-15T10:01:05;3.20;99.90
8684;DHT22;4379;59.744;18.206;2023-01-15T10:03:50;3.20;99.90
8684;DHT22;4379;59.744;18.206;2023-01-15T10:06:32;3.30;99.90
8684;DHT22;4379;59.744;18.206;2023-01-15T10:09:14;3.30;99.90
8684;DHT22;4379;59.744;18.206;2023-01-15T10:12:17;3.40;99.90
8684;DHT22;4379;59.744;18.206;2023-01-15T10:15:24;3.50;99.90
8684;DHT22;4379;59.744;18.206;2023-01-15T10:17:57;3.40;99.90
8684;DHT22;4379;59.744;18.206;2023-01-15T10:24:18;3.50;99.90
8684;DHT22;4379;59.744;18.206;2023-01-15T10:31:58;3.30;99.90
8684;DHT22;4379;59.744;18.206;2023-01-15T10:37:36;3.20;99.90
8684;DHT22;4379;59.744;18.206;2023-01-15T10:40:50;3.20;99.90
8684;DHT22;4379;59.744;18.206;2023-01-15T10:46:16;3.40;99.90
8684;DHT22;4379;59.744;18.206;2023-01-15T10:48:49;3.60;99.90
8684;DHT22;4379;59.744;18.206;2023-01-15T10:51:24;3.60;99.90
8684;DHT22;4379;59.744;18.206;2023-01-15T10:53:59;3.70;99.90
8684;DHT22;4379;59.744;18.206;2023-01-15T10:59:26;3.70;99.90
8684;DHT22;4379;59.744;18.206;2023-01-15T11:01:58;3.70;99.90
8684;DHT22;4379;59.744;18.206;2023-01-15T11:04:30;3.70;99.90
8684;DHT22;4379;59.744;18.206;2023-01-15T11:06:57;3.70;99.90
8684;DHT22;4379;59.744;18.206;2023-01-15T11:09:27;3.70;99.90
8684;DHT22;4379;59.744;18.206;2023-01-15T11:12:27;3.70;99.90
8684;DHT22;4379;59.744;18.206;2023-01-15T11:15:21;3.60;99.90
8684;DHT22;4379;59.744;18.206;2023-01-15T11:18:21;3.60;99.90
8684;DHT22;4379;59.744;18.206;2023-01-15T11:21:13;3.50;99.90
8684;DHT22;4379;59.744;18.206;2023-01-15T11:23:41;3.50;99.90
8684;DHT22;4379;59.744;18.206;2023-01-15T11:26:09;3.50;99.90
8684;DHT22;4379;59.744;18.206;2023-01-15T11:28:43;3.40;99.90
8684;DHT22;4379;59.744;18.206;2023-01-15T11:31:13;3.40;99.90
8684;DHT22;4379;59.744;18.206;2023-01-15T11:33:59;3.30;99.90
8684;DHT22;4379;59.744;18.206;2023-01-15T11:36:28;3.20;99.90
8684;DHT22;4379;59.744;18.206;2023-01-15T11:38:55;3.20;99.90
8684;DHT22;4379;59.744;18.206;2023-01-15T11:41:30;3.20;99.90
8684;DHT22;4379;59.744;18.206;2023-01-15T11:44:18;3.20;99.90
8684;DHT22;4379;59.744;18.206;2023-01-15T11:47:11;3.20;99.90
8684;DHT22;4379;59.744;18.206;2023-01-15T11:49:58;3.20;99.90
8684;DHT22;4379;59.744;18.206;2023-01-15T11:52:53;3.20;99.90
8684;DHT22;4379;59.744;18.206;2023-01-15T11:55:25;3.20;99.90
8684;DHT22;4379;59.744;18.206;2023-01-15T11:57:53;3.20;99.90
8684;DHT22;4379;59.744;18.206;2023-01-15T12:00:27;3.20;99.90
8684;DHT22;4379;59.744;18.206;2023-01-15T12:03:02;3.30;99.90
8684;DHT22;4379;59.744;18.206;2023-01-15T12:05:34;3.40;99.90
8684;DHT22;4379;59.744;18.206;2023-01-15T12:11:15;3.50;99.90
8684;DHT22;4379;59.744;18.206;2023-01-15T12:16:26;3.50;99.90
8684;DHT22;4379;59.744;18.206;2023-01-15T12:19:28;3.60;99.90
8684;DHT22;4379;59.744;18.206;2023-01-15T12:22:38;3.60;99.90
8684;DHT22;4379;59.744;18.206;2023-01-15T12:25:36;3.50;99.90
8684;DHT22;4379;59.744;18.206;2023-01-15T12:28:08;3.50;99.90
8684;DHT22;4379;59.744;18.206;2023-01-15T12:31:00;3.60;99.90
8684;DHT22;4379;59.744;18.206;2023-01-15T12:36:19;3.60;99.90
8684;DHT22;4379;59.744;18.206;2023-01-15T12:38:59;3.70;99.90
8684;DHT22;4379;59.744;18.206;2023-01-15T12:41:44;3.70;99.90
8684;DHT22;4379;59.744;18.206;2023-01-15T12:44:45;3.80;99.90
8684;DHT22;4379;59.744;18.206;2023-01-15T12:48:14;3.80;99.90
8684;DHT22;4379;59.744;18.206;2023-01-15T12:50:51;3.90;99.90
8684;DHT22;4379;59.744;18.206;2023-01-15T12:53:21;3.90;99.90
8684;DHT22;4379;59.744;18.206;2023-01-15T12:55:54;3.80;99.90
8684;DHT22;4379;59.744;18.206;2023-01-15T13:07:18;3.70;99.90
8684;DHT22;4379;59.744;18.206;2023-01-15T13:13:17;3.60;99.90
8684;DHT22;4379;59.744;18.206;2023-01-15T13:21:33;3.40;99.90
8684;DHT22;4379;59.744;18.206;2023-01-15T13:27:20;3.40;99.90
8684;DHT22;4379;59.744;18.206;2023-01-15T13:32:32;3.60;99.90
8684;DHT22;4379;59.744;18.206;2023-01-15T13:37:43;3.60;99.90
8684;DHT22;4379;59.744;18.206;2023-01-15T13:42:55;3.60;99.90
8684;DHT22;4379;59.744;18.206;2023-01-15T13:45:31;3.50;99.90
8684;DHT22;4379;59.744;18.206;2023-01-15T13:48:12;3.40;99.90
8684;DHT22;4379;59.744;18.206;2023-01-15T13:50:50;3.40;99.90
8684;DHT22;4379;59.744;18.206;2023-01-15T13:53:31;3.30;99.90
8684;DHT22;4379;59.744;18.206;2023-01-15T13:58:34;3.30;99.90
8684;DHT22;4379;59.744;18.206;2023-01-15T14:06:47;3.30;99.90
8684;DHT22;4379;59.744;18.206;2023-01-15T14:33:48;3.50;99.90
8684;DHT22;4379;59.744;18.206;2023-01-15T14:36:28;3.50;99.90
8684;DHT22;4379;59.744;18.206;2023-01-15T14:39:00;3.50;99.90
8684;DHT22;4379;59.744;18.206;2023-01-15T14:41:34;3.40;99.90
8684;DHT22;4379;59.744;18.206;2023-01-15T14:44:30;3.40;99.90
8684;DHT22;4379;59.744;18.206;2023-01-15T14:47:03;3.40;99.90
8684;DHT22;4379;59.744;18.206;2023-01-15T14:49:44;3.40;99.90
8684;DHT22;4379;59.744;18.206;2023-01-15T14:52:21;3.30;99.90
8684;DHT22;4379;59.744;18.206;2023-01-15T14:54:50;3.40;99.90
8684;DHT22;4379;59.744;18.206;2023-01-15T14:57:20;3.40;99.90
8684;DHT22;4379;59.744;18.206;2023-01-15T15:00:01;3.40;99.90
8684;DHT22;4379;59.744;18.206;2023-01-15T15:02:38;3.40;99.90
8684;DHT22;4379;59.744;18.206;2023-01-15T15:05:16;3.50;99.90
8684;DHT22;4379;59.744;18.206;2023-01-15T15:07:47;3.50;99.90
8684;DHT22;4379;59.744;18.206;2023-01-15T15:10:34;3.50;99.90
8684;DHT22;4379;59.744;18.206;2023-01-15T15:16:18;3.40;99.90
8684;DHT22;4379;59.744;18.206;2023-01-15T15:21:40;3.40;99.90
8684;DHT22;4379;59.744;18.206;2023-01-15T15:24:27;3.30;99.90
8684;DHT22;4379;59.744;18.206;2023-01-15T15:26:56;3.20;99.90
8684;DHT22;4379;59.744;18.206;2023-01-15T15:29:23;3.10;99.90
8684;DHT22;4379;59.744;18.206;2023-01-15T15:31:56;3.10;99.90
8684;DHT22;4379;59.744;18.206;2023-01-15T15:34:34;3.10;99.90
8684;DHT22;4379;59.744;18.206;2023-01-15T15:37:18;3.20;99.90
8684;DHT22;4379;59.744;18.206;2023-01-15T15:40:09;3.10;99.90
8684;DHT22;4379;59.744;18.206;2023-01-15T15:45:50;3.00;99.90
8684;DHT22;4379;59.744;18.206;2023-01-15T15:48:36;2.90;99.90
8684;DHT22;4379;59.744;18.206;2023-01-15T15:51:38;2.90;99.90
8684;DHT22;4379;59.744;18.206;2023-01-15T15:54:14;2.90;99.90
8684;DHT22;4379;59.744;18.206;2023-01-15T15:59:33;2.80;99.90
8684;DHT22;4379;59.744;18.206;2023-01-15T16:02:33;2.70;99.90
8684;DHT22;4379;59.744;18.206;2023-01-15T16:05:26;2.70;99.90
8684;DHT22;4379;59.744;18.206;2023-01-15T16:10:43;2.60;99.90
8684;DHT22;4379;59.744;18.206;2023-01-15T16:13:26;2.60;99.90
8684;DHT22;4379;59.744;18.206;2023-01-15T16:15:56;2.60;99.90
8684;DHT22;4379;59.744;18.206;2023-01-15T16:18:36;2.50;99.90
8684;DHT22;4379;59.744;18.206;2023-01-15T16:21:07;2.50;99.90
8684;DHT22;4379;59.744;18.206;2023-01-15T16:23:35;2.40;99.90
8684;DHT22;4379;59.744;18.206;2023-01-15T16:28:37;2.30;99.90
8684;DHT22;4379;59.744;18.206;2023-01-15T16:31:12;2.40;99.90
8684;DHT22;4379;59.744;18.206;2023-01-15T16:33:41;2.40;99.90
8684;DHT22;4379;59.744;18.206;2023-01-15T16:36:08;2.30;99.90
8684;DHT22;4379;59.744;18.206;2023-01-15T16:38:39;2.30;99.90
8684;DHT22;4379;59.744;18.206;2023-01-15T16:41:37;2.30;99.90
8684;DHT22;4379;59.744;18.206;2023-01-15T16:44:05;2.30;99.90
8684;DHT22;4379;59.744;18.206;2023-01-15T16:46:52;2.30;99.90
8684;DHT22;4379;59.744;18.206;2023-01-15T16:49:31;2.40;99.90
8684;DHT22;4379;59.744;18.206;2023-01-15T16:52:00;2.50;99.90
8684;DHT22;4379;59.744;18.206;2023-01-15T16:57:03;2.50;99.90
8684;DHT22;4379;59.744;18.206;2023-01-15T17:02:14;2.50;99.90
8684;DHT22;4379;59.744;18.206;2023-01-15T17:04:44;2.50;99.90
8684;DHT22;4379;59.744;18.206;2023-01-15T17:07:33;2.40;99.90
8684;DHT22;4379;59.744;18.206;2023-01-15T17:10:02;2.30;99.90
8684;DHT22;4379;59.744;18.206;2023-01-15T17:12:42;2.30;99.90
8684;DHT22;4379;59.744;18.206;2023-01-15T17:17:47;2.20;99.90
8684;DHT22;4379;59.744;18.206;2023-01-15T17:20:15;2.20;99.90
8684;DHT22;4379;59.744;18.206;2023-01-15T17:22:46;2.20;99.90
8684;DHT22;4379;59.744;18.206;2023-01-15T17:25:26;2.20;99.90
8684;DHT22;4379;59.744;18.206;2023-01-15T17:27:54;2.30;99.90
8684;DHT22;4379;59.744;18.206;2023-01-15T17:30:22;2.40;99.90
8684;DHT22;4379;59.744;18.206;2023-01-15T17:33:09;2.40;99.90
8684;DHT22;4379;59.744;18.206;2023-01-15T17:35:38;2.40;99.90
8684;DHT22;4379;59.744;18.206;2023-01-15T17:38:09;2.40;99.90
8684;DHT22;4379;59.744;18.206;2023-01-15T17:40:38;2.40;99.90
8684;DHT22;4379;59.744;18.206;2023-01-15T17:43:08;2.50;99.90
8684;DHT22;4379;59.744;18.206;2023-01-15T17:45:36;2.50;99.90
8684;DHT22;4379;59.744;18.206;2023-01-15T17:48:04;2.40;99.90
8684;DHT22;4379;59.744;18.206;2023-01-15T17:50:35;2.30;99.90
8684;DHT22;4379;59.744;18.206;2023-01-15T17:53:04;2.30;99.90
8684;DHT22;4379;59.744;18.206;2023-01-15T17:55:31;2.30;99.90
8684;DHT22;4379;59.744;18.206;2023-01-15T17:58:17;2.20;99.90
8684;DHT22;4379;59.744;18.206;2023-01-15T18:01:10;2.10;99.90
8684;DHT22;4379;59.744;18.206;2023-01-15T18:03:59;2.00;99.90
8684;DHT22;4379;59.744;18.206;2023-01-15T18:06:48;2.00;99.90
8684;DHT22;4379;59.744;18.206;2023-01-15T18:09:18;2.00;99.90
8684;DHT22;4379;59.744;18.206;2023-01-15T18:11:47;1.90;99.90
8684;DHT22;4379;59.744;18.206;2023-01-15T18:14:14;1.90;99.90
8684;DHT22;4379;59.744;18.206;2023-01-15T18:16:41;2.00;99.90
8684;DHT22;4379;59.744;18.206;2023-01-15T18:19:08;1.90;99.90
8684;DHT22;4379;59.744;18.206;2023-01-15T18:21:39;2.00;99.90
8684;DHT22;4379;59.744;18.206;2023-01-15T18:24:08;2.00;99.90
8684;DHT22;4379;59.744;18.206;2023-01-15T18:26:40;1.90;99.90
8684;DHT22;4379;59.744;18.206;2023-01-15T18:29:08;1.90;99.90
8684;DHT22;4379;59.744;18.206;2023-01-15T18:31:36;1.90;99.90
8684;DHT22;4379;59.744;18.206;2023-01-15T18:34:04;1.80;99.90
8684;DHT22;4379;59.744;18.206;2023-01-15T18:36:32;1.80;99.90
8684;DHT22;4379;59.744;18.206;2023-01-15T18:38:59;1.80;99.90
8684;DHT22;4379;59.744;18.206;2023-01-15T18:41:34;1.80;99.90
8684;DHT22;4379;59.744;18.206;2023-01-15T18:44:06;1.80;99.90
8684;DHT22;4379;59.744;18.206;2023-01-15T18:47:06;1.70;99.90
8684;DHT22;4379;59.744;18.206;2023-01-15T18:49:39;1.80;99.90
8684;DHT22;4379;59.744;18.206;2023-01-15T18:52:07;1.90;99.90
8684;DHT22;4379;59.744;18.206;2023-01-15T18:54:54;1.90;99.90
8684;DHT22;4379;59.744;18.206;2023-01-15T18:57:22;1.90;99.90
8684;DHT22;4379;59.744;18.206;2023-01-15T18:59:50;1.90;99.90
8684;DHT22;4379;59.744;18.206;2023-01-15T19:02:19;1.80;99.90
8684;DHT22;4379;59.744;18.206;2023-01-15T19:04:47;1.90;99.90